createdAt,value
2018-09-14T00:00:08.868Z,16.27
2018-09-14T00:01:08.807Z,16.25
2018-09-14T00:02:08.787Z,16.26
2018-09-14T00:03:08.935Z,16.27
2018-09-14T00:04:08.755Z,16.25
2018-09-14T00:05:08.768Z,16.20
2018-09-14T00:06:08.723Z,16.20
2018-09-14T00:07:08.707Z,16.20
2018-09-14T00:08:08.691Z,16.20
2018-09-14T00:09:08.682Z,16.18
2018-09-14T00:10:08.663Z,16.25
2018-09-14T00:11:08.642Z,16.20
2018-09-14T00:12:08.699Z,16.18
2018-09-14T00:13:08.612Z,16.20
2018-09-14T00:14:08.694Z,16.22
2018-09-14T00:15:08.587Z,16.18
2018-09-14T00:16:08.561Z,16.25
2018-09-14T00:17:08.545Z,16.20
2018-09-14T00:18:08.529Z,16.27
2018-09-14T00:19:08.523Z,16.12
2018-09-14T00:20:08.502Z,16.18
2018-09-14T00:21:08.481Z,16.18
2018-09-14T00:22:08.466Z,16.18
2018-09-14T00:23:08.509Z,16.27
2018-09-14T00:24:08.437Z,16.16
2018-09-14T00:25:08.419Z,16.14
2018-09-14T00:26:08.402Z,16.23
2018-09-14T00:27:08.632Z,16.22
2018-09-14T00:28:08.380Z,16.16
2018-09-14T00:29:08.355Z,16.16
2018-09-14T00:30:08.338Z,16.09
2018-09-14T00:31:08.326Z,16.12
2018-09-14T00:32:08.310Z,16.22
2018-09-14T00:33:08.294Z,16.16
2018-09-14T00:34:08.274Z,16.20
2018-09-14T00:35:08.487Z,16.09
2018-09-14T00:36:08.469Z,16.12
2018-09-14T00:37:08.243Z,16.15
2018-09-14T00:38:08.210Z,16.03
2018-09-14T00:39:08.201Z,16.09
2018-09-14T00:40:08.184Z,16.09
2018-09-14T00:41:08.169Z,16.06
2018-09-14T00:42:08.152Z,16.14
2018-09-14T00:43:08.137Z,16.07
2018-09-14T00:44:08.121Z,16.11
2018-09-14T00:45:08.134Z,16.07
2018-09-14T00:46:08.098Z,16.07
2018-09-14T00:47:08.073Z,16.11
2018-09-14T00:48:08.232Z,16.09
2018-09-14T00:49:08.214Z,16.06
2018-09-14T00:50:08.022Z,16.09
2018-09-14T00:51:08.009Z,16.01
2018-09-14T00:52:07.987Z,16.03
2018-09-14T00:53:07.980Z,16.04
2018-09-14T00:54:07.955Z,16.04
2018-09-14T01:00:15.771Z,16.03
2018-09-14T01:00:44.162Z,16.01
2018-09-14T01:01:44.112Z,15.97
2018-09-14T01:02:44.100Z,16.06
2018-09-14T01:03:44.077Z,16.04
2018-09-14T01:04:44.064Z,16.00
2018-09-14T01:05:44.048Z,15.89
2018-09-14T01:06:44.032Z,15.99
2018-09-14T01:07:44.013Z,15.99
2018-09-14T01:08:44.006Z,15.94
2018-09-14T01:09:43.994Z,15.92
2018-09-14T01:10:43.973Z,15.92
2018-09-14T01:11:43.952Z,15.86
2018-09-14T01:12:43.932Z,15.86
2018-09-14T01:13:43.917Z,15.84
2018-09-14T01:14:43.904Z,15.85
2018-09-14T01:15:43.888Z,15.78
2018-09-14T01:16:43.868Z,15.89
2018-09-14T01:17:43.859Z,15.66
2018-09-14T01:18:43.845Z,15.74
2018-09-14T01:19:43.825Z,15.68
2018-09-14T01:20:43.806Z,15.66
2018-09-14T01:21:43.790Z,15.48
2018-09-14T01:22:43.774Z,15.57
2018-09-14T01:23:43.758Z,15.56
2018-09-14T01:24:43.749Z,15.48
2018-09-14T01:25:43.726Z,15.51
2018-09-14T01:26:43.711Z,15.54
2018-09-14T01:27:43.690Z,15.52
2018-09-14T01:28:43.681Z,15.56
2018-09-14T01:29:43.668Z,15.52
2018-09-14T01:30:43.646Z,15.59
2018-09-14T01:31:43.628Z,15.52
2018-09-14T01:32:43.612Z,15.59
2018-09-14T01:33:43.599Z,15.63
2018-09-14T01:34:43.579Z,15.63
2018-09-14T01:35:43.563Z,15.64
2018-09-14T01:36:43.551Z,15.54
2018-09-14T01:37:43.531Z,15.57
2018-09-14T01:38:43.516Z,15.54
2018-09-14T01:39:43.500Z,15.63
2018-09-14T01:40:43.493Z,15.54
2018-09-14T01:41:43.508Z,15.59
2018-09-14T01:42:43.448Z,15.61
2018-09-14T01:43:43.430Z,15.60
2018-09-14T01:44:43.441Z,15.60
2018-09-14T01:45:43.405Z,15.59
2018-09-14T01:46:43.383Z,15.60
2018-09-14T01:47:43.380Z,15.59
2018-09-14T01:48:43.351Z,15.66
2018-09-14T01:49:43.345Z,15.52
2018-09-14T01:50:43.319Z,15.64
2018-09-14T01:51:43.303Z,15.64
2018-09-14T01:52:43.289Z,15.60
2018-09-14T01:53:43.274Z,15.61
2018-09-14T01:54:43.252Z,15.61
2018-09-14T01:55:43.237Z,15.68
2018-09-14T01:56:43.221Z,15.74
2018-09-14T01:57:43.207Z,15.63
2018-09-14T01:58:43.189Z,15.61
2018-09-14T01:59:43.173Z,15.63
2018-09-14T02:00:43.161Z,15.59
2018-09-14T02:01:43.142Z,15.70
2018-09-14T02:02:43.132Z,15.61
2018-09-14T02:03:43.107Z,15.68
2018-09-14T02:04:43.093Z,15.68
2018-09-14T02:05:43.077Z,15.63
2018-09-14T02:06:43.069Z,15.63
2018-09-14T02:07:43.049Z,15.68
2018-09-14T02:08:43.033Z,15.63
2018-09-14T02:09:43.012Z,15.66
2018-09-14T02:10:42.993Z,15.68
2018-09-14T02:11:42.977Z,15.68
2018-09-14T02:12:42.978Z,15.68
2018-09-14T02:13:42.948Z,15.61
2018-09-14T02:14:42.932Z,15.64
2018-09-14T02:15:42.920Z,15.66
2018-09-14T02:16:42.897Z,15.66
2018-09-14T02:17:42.882Z,15.61
2018-09-14T02:18:42.863Z,15.66
2018-09-14T02:19:42.849Z,15.63
2018-09-14T02:20:42.842Z,15.63
2018-09-14T02:21:42.839Z,15.70
2018-09-14T02:22:42.803Z,15.63
2018-09-14T02:23:42.785Z,15.70
2018-09-14T02:24:42.778Z,15.64
2018-09-14T02:25:42.797Z,15.70
2018-09-14T02:26:42.740Z,15.75
2018-09-14T02:27:42.730Z,15.72
2018-09-14T02:28:42.711Z,15.74
2018-09-14T02:29:42.690Z,15.74
2018-09-14T02:30:42.739Z,15.68
2018-09-14T02:31:42.656Z,15.74
2018-09-14T02:32:42.660Z,15.68
2018-09-14T02:33:42.625Z,15.68
2018-09-14T02:34:42.615Z,15.78
2018-09-14T02:35:42.599Z,15.84
2018-09-14T02:36:42.577Z,15.78
2018-09-14T02:37:42.561Z,15.78
2018-09-14T02:38:42.544Z,15.84
2018-09-14T02:39:42.531Z,15.81
2018-09-14T02:40:42.525Z,15.88
2018-09-14T02:41:42.504Z,15.86
2018-09-14T02:42:42.488Z,15.85
2018-09-14T02:43:42.468Z,15.84
2018-09-14T02:44:42.449Z,15.78
2018-09-14T02:45:42.434Z,15.89
2018-09-14T02:46:42.420Z,15.82
2018-09-14T02:47:42.403Z,15.81
2018-09-14T02:48:42.404Z,15.82
2018-09-14T02:49:42.368Z,15.84
2018-09-14T02:50:42.359Z,15.79
2018-09-14T02:51:42.334Z,15.81
2018-09-14T02:52:42.320Z,15.89
2018-09-14T02:53:43.249Z,15.84
2018-09-14T02:54:42.290Z,15.81
2018-09-14T02:55:42.281Z,15.86
2018-09-14T02:56:42.257Z,15.84
2018-09-14T02:57:42.243Z,15.81
2018-09-14T02:58:42.224Z,15.79
2018-09-14T02:59:42.207Z,15.84
2018-09-14T03:00:42.198Z,15.81
2018-09-14T03:01:42.181Z,15.88
2018-09-14T03:02:42.160Z,15.88
2018-09-14T03:03:42.157Z,15.84
2018-09-14T03:04:42.127Z,15.93
2018-09-14T03:05:42.112Z,15.92
2018-09-14T03:06:42.105Z,15.94
2018-09-14T03:07:42.083Z,15.85
2018-09-14T03:08:42.069Z,15.86
2018-09-14T03:09:42.054Z,15.89
2018-09-14T03:10:42.034Z,15.86
2018-09-14T03:11:42.013Z,15.84
2018-09-14T03:12:42.023Z,15.81
2018-09-14T03:13:41.980Z,15.82
2018-09-14T03:14:41.965Z,15.82
2018-09-14T03:15:41.952Z,15.81
2018-09-14T03:16:41.936Z,15.82
2018-09-14T03:17:41.926Z,15.85
2018-09-14T03:18:41.901Z,15.78
2018-09-14T03:19:41.891Z,15.86
2018-09-14T03:20:41.879Z,15.76
2018-09-14T03:21:41.859Z,15.84
2018-09-14T03:22:41.842Z,15.79
2018-09-14T03:23:41.833Z,15.84
2018-09-14T03:24:41.822Z,15.76
2018-09-14T03:25:41.786Z,15.74
2018-09-14T03:26:42.717Z,15.78
2018-09-14T03:27:41.758Z,15.70
2018-09-14T03:28:41.741Z,15.70
2018-09-14T03:29:41.722Z,15.68
2018-09-14T03:30:41.716Z,15.75
2018-09-14T03:31:41.693Z,15.64
2018-09-14T03:32:41.674Z,15.68
2018-09-14T03:33:41.664Z,15.66
2018-09-14T03:34:41.658Z,15.68
2018-09-14T03:35:41.626Z,15.72
2018-09-14T03:36:41.607Z,15.74
2018-09-14T03:37:41.594Z,15.70
2018-09-14T03:38:41.583Z,15.61
2018-09-14T03:39:41.562Z,15.60
2018-09-14T03:40:41.542Z,15.67
2018-09-14T03:41:41.539Z,15.68
2018-09-14T03:42:42.365Z,15.74
2018-09-14T03:43:41.507Z,15.64
2018-09-14T03:44:41.485Z,15.63
2018-09-14T03:45:41.472Z,15.60
2018-09-14T03:46:41.448Z,15.61
2018-09-14T03:47:41.429Z,15.70
2018-09-14T03:48:41.420Z,15.74
2018-09-14T03:49:41.413Z,15.66
2018-09-14T03:50:41.398Z,15.64
2018-09-14T03:51:41.368Z,15.59
2018-09-14T03:52:41.356Z,15.63
2018-09-14T03:53:41.336Z,15.68
2018-09-14T03:54:41.317Z,15.63
2018-09-14T03:55:41.307Z,15.66
2018-09-14T03:56:41.301Z,15.63
2018-09-14T03:57:41.272Z,15.61
2018-09-14T03:58:41.256Z,15.61
2018-09-14T03:59:41.246Z,15.63
2018-09-14T04:00:41.218Z,15.57
2018-09-14T04:01:41.212Z,15.52
2018-09-14T04:02:41.206Z,15.63
2018-09-14T04:03:41.167Z,15.61
2018-09-14T04:04:41.155Z,15.63
2018-09-14T04:05:41.135Z,15.57
2018-09-14T04:06:41.126Z,15.61
2018-09-14T04:07:41.166Z,15.59
2018-09-14T04:08:41.088Z,15.60
2018-09-14T04:09:41.075Z,15.59
2018-09-14T04:10:41.058Z,15.52
2018-09-14T04:11:41.039Z,15.61
2018-09-14T04:12:41.022Z,15.61
2018-09-14T04:13:41.008Z,15.57
2018-09-14T04:14:41.013Z,15.57
2018-09-14T04:15:40.985Z,15.56
2018-09-14T04:16:40.965Z,15.59
2018-09-14T04:17:40.940Z,15.52
2018-09-14T04:18:40.940Z,15.60
2018-09-14T04:19:40.911Z,15.54
2018-09-14T04:20:40.894Z,15.56
2018-09-14T04:21:40.882Z,15.61
2018-09-14T04:22:40.873Z,15.61
2018-09-14T04:23:40.902Z,15.54
2018-09-14T04:24:40.826Z,15.54
2018-09-14T04:25:40.820Z,15.51
2018-09-14T04:26:40.796Z,15.60
2018-09-14T04:27:40.784Z,15.49
2018-09-14T04:28:40.768Z,15.63
2018-09-14T04:29:40.749Z,15.52
2018-09-14T04:30:40.733Z,15.56
2018-09-14T04:31:40.711Z,15.59
2018-09-14T04:32:40.696Z,15.61
2018-09-14T04:33:40.692Z,15.61
2018-09-14T04:34:40.683Z,15.56
2018-09-14T04:35:40.646Z,15.61
2018-09-14T04:36:40.640Z,15.49
2018-09-14T04:37:40.617Z,15.43
2018-09-14T04:38:40.632Z,15.45
2018-09-14T04:39:40.585Z,15.54
2018-09-14T04:40:40.566Z,15.38
2018-09-14T04:41:40.553Z,15.49
2018-09-14T04:42:40.586Z,15.48
2018-09-14T04:43:40.518Z,15.48
2018-09-14T04:44:40.503Z,15.45
2018-09-14T04:45:40.483Z,15.42
2018-09-14T04:46:40.480Z,15.49
2018-09-14T04:47:40.457Z,15.45
2018-09-14T04:48:40.444Z,15.41
2018-09-14T04:49:40.424Z,15.45
2018-09-14T04:50:40.409Z,15.43
2018-09-14T04:51:40.386Z,15.45
2018-09-14T04:52:40.374Z,15.39
2018-09-14T04:53:40.358Z,15.46
2018-09-14T04:54:40.344Z,15.43
2018-09-14T04:55:40.318Z,15.43
2018-09-14T04:56:40.303Z,15.41
2018-09-14T04:57:40.293Z,15.45
2018-09-14T04:58:40.293Z,15.46
2018-09-14T04:59:40.258Z,15.41
2018-09-14T05:00:40.322Z,15.45
2018-09-14T05:01:40.223Z,15.41
2018-09-14T05:02:40.224Z,15.42
2018-09-14T05:03:40.192Z,15.42
2018-09-14T05:04:40.175Z,15.45
2018-09-14T05:05:40.152Z,15.41
2018-09-14T05:06:40.159Z,15.45
2018-09-14T05:07:40.198Z,15.46
2018-09-14T05:08:40.114Z,15.46
2018-09-14T05:09:40.088Z,15.46
2018-09-14T05:10:40.086Z,15.45
2018-09-14T05:11:40.056Z,15.52
2018-09-14T05:12:40.050Z,15.49
2018-09-14T05:13:40.037Z,15.46
2018-09-14T05:14:40.005Z,15.45
2018-09-14T05:15:40.005Z,15.48
2018-09-14T05:16:39.976Z,15.49
2018-09-14T05:17:39.992Z,15.42
2018-09-14T05:18:39.950Z,15.56
2018-09-14T05:19:39.931Z,15.42
2018-09-14T05:20:39.909Z,15.45
2018-09-14T05:21:39.897Z,15.49
2018-09-14T05:22:39.877Z,15.42
2018-09-14T05:23:39.871Z,15.43
2018-09-14T05:24:39.906Z,15.48
2018-09-14T05:25:39.834Z,15.61
2018-09-14T05:26:39.815Z,15.46
2018-09-14T05:27:39.789Z,15.54
2018-09-14T05:28:39.777Z,15.48
2018-09-14T05:29:39.760Z,15.46
2018-09-14T05:30:39.751Z,15.54
2018-09-14T05:31:39.732Z,15.46
2018-09-14T05:32:39.725Z,15.49
2018-09-14T05:33:39.697Z,15.45
2018-09-14T05:34:39.686Z,15.48
2018-09-14T05:35:39.661Z,15.41
2018-09-14T05:36:39.651Z,15.54
2018-09-14T05:37:39.641Z,15.48
2018-09-14T05:38:39.614Z,15.51
2018-09-14T05:39:39.604Z,15.45
2018-09-14T05:40:39.607Z,15.43
2018-09-14T05:41:39.566Z,15.46
2018-09-14T05:42:39.544Z,15.39
2018-09-14T05:43:39.534Z,15.51
2018-09-14T05:44:39.524Z,15.51
2018-09-14T05:45:39.554Z,15.48
2018-09-14T05:46:39.489Z,15.54
2018-09-14T05:47:39.473Z,15.52
2018-09-14T05:48:39.457Z,15.39
2018-09-14T05:49:39.431Z,15.45
2018-09-14T05:50:39.422Z,15.42
2018-09-14T05:51:39.427Z,15.51
2018-09-14T05:52:39.390Z,15.59
2018-09-14T05:53:39.374Z,15.56
2018-09-14T05:54:39.355Z,15.52
2018-09-14T05:55:39.346Z,15.60
2018-09-14T05:56:39.336Z,15.54
2018-09-14T05:57:39.301Z,15.60
2018-09-14T05:58:39.288Z,15.60
2018-09-14T05:59:39.288Z,15.57
2018-09-14T06:00:39.259Z,15.61
2018-09-14T06:01:39.251Z,15.56
2018-09-14T06:02:39.228Z,15.66
2018-09-14T06:03:39.218Z,15.52
2018-09-14T06:04:39.193Z,15.64
2018-09-14T06:05:39.170Z,15.66
2018-09-14T06:06:39.221Z,15.66
2018-09-14T06:07:39.148Z,15.64
2018-09-14T06:08:39.129Z,15.70
2018-09-14T06:09:39.111Z,15.64
2018-09-14T06:10:39.090Z,15.61
2018-09-14T06:11:39.083Z,15.63
2018-09-14T06:12:39.081Z,15.63
2018-09-14T06:13:39.058Z,15.63
2018-09-14T06:14:39.037Z,15.66
2018-09-14T06:15:39.019Z,15.68
2018-09-14T06:16:38.996Z,15.63
2018-09-14T06:17:38.989Z,15.70
2018-09-14T06:18:38.973Z,15.76
2018-09-14T06:19:38.951Z,15.75
2018-09-14T06:20:38.934Z,15.74
2018-09-14T06:21:38.928Z,15.72
2018-09-14T06:22:39.005Z,15.75
2018-09-14T06:23:38.890Z,15.68
2018-09-14T06:24:38.874Z,15.72
2018-09-14T06:25:38.867Z,15.79
2018-09-14T06:26:38.840Z,15.85
2018-09-14T06:27:38.820Z,15.79
2018-09-14T06:28:38.802Z,15.84
2018-09-14T06:29:38.785Z,15.76
2018-09-14T06:30:38.769Z,15.76
2018-09-14T06:31:38.750Z,15.78
2018-09-14T06:32:38.750Z,15.75
2018-09-14T06:33:38.725Z,15.76
2018-09-14T06:34:38.726Z,15.76
2018-09-14T06:35:38.689Z,15.76
2018-09-14T06:36:38.676Z,15.82
2018-09-14T06:37:38.660Z,15.79
2018-09-14T06:38:38.648Z,15.70
2018-09-14T06:39:38.685Z,15.79
2018-09-14T06:40:38.615Z,15.82
2018-09-14T06:41:38.596Z,15.81
2018-09-14T06:42:38.583Z,15.82
2018-09-14T06:43:38.566Z,15.82
2018-09-14T06:44:38.564Z,15.78
2018-09-14T06:45:38.541Z,15.84
2018-09-14T06:46:38.522Z,15.81
2018-09-14T06:47:38.509Z,15.92
2018-09-14T06:48:38.486Z,15.82
2018-09-14T06:49:38.464Z,15.84
2018-09-14T06:50:38.505Z,15.89
2018-09-14T06:51:38.437Z,15.92
2018-09-14T06:52:38.424Z,15.93
2018-09-14T06:53:38.424Z,15.88
2018-09-14T06:54:38.408Z,15.86
2018-09-14T06:55:38.380Z,15.88
2018-09-14T06:56:38.360Z,15.88
2018-09-14T06:57:38.348Z,15.92
2018-09-14T06:58:38.322Z,15.86
2018-09-14T06:59:38.319Z,15.94
2018-09-14T07:00:38.300Z,15.93
2018-09-14T07:01:38.280Z,16.04
2018-09-14T07:02:38.274Z,15.99
2018-09-14T07:03:38.251Z,15.99
2018-09-14T07:04:38.244Z,15.94
2018-09-14T07:05:38.231Z,15.89
2018-09-14T07:06:38.199Z,15.96
2018-09-14T07:07:38.186Z,15.99
2018-09-14T07:08:38.187Z,15.99
2018-09-14T07:09:38.151Z,16.04
2018-09-14T07:10:38.161Z,16.00
2018-09-14T07:11:38.169Z,16.01
2018-09-14T07:12:38.129Z,16.00
2018-09-14T07:13:38.100Z,16.06
2018-09-14T07:14:38.077Z,16.03
2018-09-14T07:15:38.058Z,16.03
2018-09-14T07:16:38.067Z,16.06
2018-09-14T07:17:38.044Z,16.14
2018-09-14T07:18:38.020Z,16.20
2018-09-14T07:19:38.006Z,16.16
2018-09-14T07:20:38.016Z,16.27
2018-09-14T07:21:37.993Z,16.25
2018-09-14T07:22:37.965Z,16.26
2018-09-14T07:23:37.942Z,16.30
2018-09-14T07:24:38.039Z,16.26
2018-09-14T07:25:37.915Z,16.26
2018-09-14T07:26:37.892Z,16.33
2018-09-14T07:27:37.910Z,16.37
2018-09-14T07:28:37.889Z,16.37
2018-09-14T07:29:37.844Z,16.44
2018-09-14T07:30:37.827Z,16.42
2018-09-14T07:31:37.877Z,16.44
2018-09-14T07:32:37.819Z,16.45
2018-09-14T07:33:37.779Z,16.53
2018-09-14T07:34:37.792Z,16.62
2018-09-14T07:35:37.747Z,16.70
2018-09-14T07:36:37.806Z,16.71
2018-09-14T07:37:37.723Z,16.73
2018-09-14T07:38:37.706Z,16.73
2018-09-14T07:39:37.699Z,16.89
2018-09-14T07:40:37.696Z,16.86
2018-09-14T07:41:37.651Z,16.83
2018-09-14T07:42:37.697Z,16.83
2018-09-14T07:43:37.625Z,16.85
2018-09-14T07:44:37.610Z,16.85
2018-09-14T07:45:37.590Z,16.81
2018-09-14T07:46:37.583Z,16.75
2018-09-14T07:47:37.567Z,16.81
2018-09-14T07:48:37.563Z,16.80
2018-09-14T07:49:37.535Z,16.68
2018-09-14T07:50:37.525Z,16.68
2018-09-14T07:51:37.510Z,16.78
2018-09-14T07:52:37.491Z,16.88
2018-09-14T07:53:38.302Z,16.86
2018-09-14T07:54:37.459Z,16.83
2018-09-14T07:55:37.452Z,16.90
2018-09-14T07:56:37.431Z,17.04
2018-09-14T07:57:37.418Z,17.11
2018-09-14T07:58:37.405Z,17.11
2018-09-14T07:59:37.398Z,17.17
2018-09-14T08:00:37.390Z,17.13
2018-09-14T08:01:37.361Z,17.07
2018-09-14T08:02:37.354Z,17.15
2018-09-14T08:03:37.329Z,17.13
2018-09-14T08:04:37.319Z,17.41
2018-09-14T08:05:37.309Z,17.36
2018-09-14T08:06:37.300Z,17.54
2018-09-14T08:07:37.285Z,17.55
2018-09-14T08:08:37.262Z,17.55
2018-09-14T08:09:37.249Z,17.66
2018-09-14T08:10:37.234Z,17.67
2018-09-14T08:11:37.218Z,17.79
2018-09-14T08:12:37.203Z,17.94
2018-09-14T08:13:37.193Z,17.97
2018-09-14T08:14:37.209Z,17.84
2018-09-14T08:15:37.168Z,17.89
2018-09-14T08:16:37.148Z,17.94
2018-09-14T08:17:37.136Z,17.92
2018-09-14T08:18:37.122Z,18.00
2018-09-14T08:19:37.116Z,18.15
2018-09-14T08:20:37.094Z,18.28
2018-09-14T08:21:37.132Z,18.29
2018-09-14T08:22:37.075Z,18.44
2018-09-14T08:23:37.068Z,18.67
2018-09-14T08:24:37.050Z,18.57
2018-09-14T08:25:37.027Z,18.64
2018-09-14T08:26:37.016Z,18.73
2018-09-14T08:27:37.004Z,18.82
2018-09-14T08:28:36.990Z,18.91
2018-09-14T08:29:36.976Z,18.97
2018-09-14T08:30:36.962Z,19.06
2018-09-14T08:31:36.950Z,19.33
2018-09-14T08:32:36.941Z,19.50
2018-09-14T08:33:36.934Z,19.60
2018-09-14T08:34:36.918Z,19.69
2018-09-14T08:35:36.905Z,19.72
2018-09-14T08:36:36.892Z,19.72
2018-09-14T08:37:36.873Z,19.68
2018-09-14T08:38:36.870Z,19.73
2018-09-14T08:39:36.848Z,19.70
2018-09-14T08:40:36.845Z,19.84
2018-09-14T08:41:36.839Z,19.87
2018-09-14T08:42:36.825Z,19.86
2018-09-14T08:43:36.809Z,19.90
2018-09-14T08:44:36.790Z,19.88
2018-09-14T08:45:36.790Z,19.91
2018-09-14T08:46:36.777Z,19.69
2018-09-14T08:47:36.771Z,19.50
2018-09-14T08:48:36.752Z,19.63
2018-09-14T08:49:36.741Z,19.70
2018-09-14T08:50:36.726Z,19.75
2018-09-14T08:51:36.726Z,19.79
2018-09-14T08:52:36.708Z,19.88
2018-09-14T08:53:36.725Z,19.98
2018-09-14T08:54:36.686Z,20.05
2018-09-14T08:55:36.675Z,20.05
2018-09-14T08:56:36.665Z,20.20
2018-09-14T08:57:36.653Z,20.20
2018-09-14T08:58:36.644Z,20.21
2018-09-14T08:59:36.639Z,20.31
2018-09-14T09:00:36.677Z,20.13
2018-09-14T09:01:36.606Z,20.16
2018-09-14T09:02:36.625Z,20.09
2018-09-14T09:03:36.591Z,20.30
2018-09-14T09:04:36.588Z,20.50
2018-09-14T09:05:36.603Z,20.74
2018-09-14T09:06:36.564Z,20.77
2018-09-14T09:07:36.545Z,20.96
2018-09-14T09:08:36.542Z,20.91
2018-09-14T09:09:36.526Z,21.13
2018-09-14T09:10:36.514Z,21.08
2018-09-14T09:11:36.504Z,21.01
2018-09-14T09:12:36.497Z,20.98
2018-09-14T09:13:36.488Z,20.76
2018-09-14T09:14:36.484Z,20.53
2018-09-14T09:15:36.490Z,20.39
2018-09-14T09:16:36.455Z,20.31
2018-09-14T09:17:36.509Z,20.09
2018-09-14T09:18:36.440Z,19.95
2018-09-14T09:19:36.421Z,19.84
2018-09-14T09:20:36.420Z,19.78
2018-09-14T09:21:36.414Z,19.80
2018-09-14T09:22:36.474Z,19.70
2018-09-14T09:23:37.336Z,19.63
2018-09-14T09:24:36.376Z,19.57
2018-09-14T09:25:36.366Z,19.50
2018-09-14T09:26:36.382Z,19.43
2018-09-14T09:27:36.340Z,19.42
2018-09-14T09:28:36.340Z,19.31
2018-09-14T09:29:36.435Z,19.32
2018-09-14T09:30:36.318Z,19.24
2018-09-14T09:31:36.299Z,19.24
2018-09-14T09:32:36.296Z,19.29
2018-09-14T09:33:36.289Z,19.40
2018-09-14T09:34:36.271Z,19.39
2018-09-14T09:35:36.261Z,19.53
2018-09-14T09:36:36.266Z,19.55
2018-09-14T09:37:36.237Z,19.58
2018-09-14T09:38:36.221Z,19.73
2018-09-14T09:39:36.206Z,19.79
2018-09-14T09:40:36.202Z,19.78
2018-09-14T09:41:36.186Z,19.75
2018-09-14T09:42:36.180Z,19.80
2018-09-14T09:43:36.371Z,19.90
2018-09-14T09:44:36.151Z,20.02
2018-09-14T09:45:36.157Z,20.02
2018-09-14T09:46:36.128Z,19.95
2018-09-14T09:47:36.122Z,20.00
2018-09-14T09:48:36.112Z,19.91
2018-09-14T09:49:36.847Z,19.90
2018-09-14T09:50:36.116Z,19.90
2018-09-14T09:51:36.077Z,19.86
2018-09-14T09:52:36.067Z,19.84
2018-09-14T09:53:36.064Z,19.83
2018-09-14T09:54:36.049Z,19.90
2018-09-14T09:55:36.033Z,19.69
2018-09-14T09:56:36.083Z,19.63
2018-09-14T09:57:36.005Z,19.43
2018-09-14T09:58:36.002Z,19.51
2018-09-14T09:59:35.986Z,19.63
2018-09-14T10:00:35.979Z,19.72
2018-09-14T10:01:35.976Z,19.78
2018-09-14T10:02:35.951Z,19.87
2018-09-14T10:03:36.008Z,19.90
2018-09-14T10:04:35.938Z,19.90
2018-09-14T10:05:35.922Z,19.91
2018-09-14T10:06:35.909Z,20.00
2018-09-14T10:07:35.893Z,20.02
2018-09-14T10:08:35.884Z,20.02
2018-09-14T10:09:35.881Z,20.18
2018-09-14T10:10:35.864Z,20.05
2018-09-14T10:11:35.847Z,19.90
2018-09-14T10:12:35.838Z,20.12
2018-09-14T10:13:35.832Z,20.39
2018-09-14T10:14:35.816Z,20.46
2018-09-14T10:15:35.807Z,20.56
2018-09-14T10:16:35.796Z,20.76
2018-09-14T10:17:35.796Z,20.71
2018-09-14T10:18:35.780Z,20.81
2018-09-14T10:19:35.761Z,20.83
2018-09-14T10:20:35.773Z,20.91
2018-09-14T10:21:35.791Z,20.95
2018-09-14T10:22:35.743Z,20.89
2018-09-14T10:23:35.726Z,21.08
2018-09-14T10:24:35.713Z,21.08
2018-09-14T10:25:35.701Z,20.98
2018-09-14T10:26:35.701Z,21.06
2018-09-14T10:27:35.684Z,21.30
2018-09-14T10:28:35.668Z,21.21
2018-09-14T10:29:35.681Z,21.24
2018-09-14T10:30:35.659Z,21.24
2018-09-14T10:31:35.652Z,21.27
2018-09-14T10:32:35.635Z,21.27
2018-09-14T10:33:35.629Z,21.02
2018-09-14T10:34:35.620Z,20.99
2018-09-14T10:35:35.613Z,21.02
2018-09-14T10:36:35.601Z,21.04
2018-09-14T10:37:35.598Z,21.05
2018-09-14T10:38:35.584Z,21.20
2018-09-14T10:39:35.565Z,21.19
2018-09-14T10:40:35.614Z,21.32
2018-09-14T10:41:35.549Z,21.53
2018-09-14T10:42:35.549Z,21.82
2018-09-14T10:43:35.533Z,22.54
2018-09-14T10:44:35.520Z,23.31
2018-09-14T10:45:35.507Z,24.13
2018-09-14T10:46:35.503Z,24.35
2018-09-14T10:47:35.492Z,24.38
2018-09-14T10:48:35.488Z,24.61
2018-09-14T10:49:35.491Z,25.12
2018-09-14T10:50:35.472Z,25.50
2018-09-14T10:51:35.460Z,25.49
2018-09-14T10:52:35.460Z,24.95
2018-09-14T10:53:35.447Z,24.75
2018-09-14T10:54:35.443Z,24.35
2018-09-14T10:55:35.453Z,24.10
2018-09-14T10:56:35.430Z,23.47
2018-09-14T10:57:35.424Z,23.35
2018-09-14T10:58:35.411Z,23.14
2018-09-14T10:59:35.414Z,22.96
2018-09-14T11:00:35.401Z,22.84
2018-09-14T11:01:35.395Z,22.34
2018-09-14T11:02:35.388Z,21.90
2018-09-14T11:03:35.382Z,21.74
2018-09-14T11:04:35.430Z,21.51
2018-09-14T11:05:35.364Z,21.50
2018-09-14T11:06:35.429Z,21.61
2018-09-14T11:07:35.351Z,21.59
2018-09-14T11:08:35.338Z,21.63
2018-09-14T11:09:35.337Z,21.71
2018-09-14T11:10:35.328Z,21.91
2018-09-14T11:11:35.315Z,22.06
2018-09-14T11:12:35.314Z,21.95
2018-09-14T11:13:35.307Z,22.06
2018-09-14T11:14:35.296Z,22.31
2018-09-14T11:15:35.279Z,22.56
2018-09-14T11:16:35.289Z,22.43
2018-09-14T11:17:35.267Z,22.34
2018-09-14T11:18:35.275Z,22.12
2018-09-14T11:19:35.251Z,22.04
2018-09-14T11:20:35.296Z,22.10
2018-09-14T11:21:35.235Z,22.16
2018-09-14T11:22:35.231Z,22.06
2018-09-14T11:23:35.226Z,22.07
2018-09-14T11:24:35.248Z,22.09
2018-09-14T11:25:35.211Z,22.22
2018-09-14T11:26:35.200Z,22.37
2018-09-14T11:27:35.187Z,22.50
2018-09-14T11:28:35.184Z,22.69
2018-09-14T11:29:35.225Z,22.83
2018-09-14T11:30:35.171Z,23.08
2018-09-14T11:31:35.158Z,23.35
2018-09-14T11:32:35.146Z,23.47
2018-09-14T11:33:35.146Z,23.35
2018-09-14T11:34:35.139Z,23.34
2018-09-14T11:35:35.127Z,23.27
2018-09-14T11:36:35.120Z,23.26
2018-09-14T11:37:35.216Z,22.94
2018-09-14T11:38:35.274Z,22.97
2018-09-14T11:39:35.095Z,22.94
2018-09-14T11:40:35.092Z,22.90
2018-09-14T11:41:35.085Z,22.77
2018-09-14T11:42:35.072Z,22.84
2018-09-14T11:43:35.066Z,22.83
2018-09-14T11:44:35.060Z,22.97
2018-09-14T11:45:35.053Z,22.96
2018-09-14T11:46:35.083Z,23.08
2018-09-14T11:47:35.032Z,23.29
2018-09-14T11:48:35.032Z,23.64
2018-09-14T11:49:35.020Z,23.89
2018-09-14T11:50:35.014Z,23.82
2018-09-14T11:51:35.007Z,23.58
2018-09-14T11:52:35.001Z,23.34
2018-09-14T11:53:35.015Z,23.01
2018-09-14T11:54:34.986Z,22.83
2018-09-14T11:55:34.981Z,22.74
2018-09-14T11:56:34.968Z,22.65
2018-09-14T11:57:34.962Z,22.64
2018-09-14T11:58:35.907Z,22.68
2018-09-14T11:59:34.946Z,22.78
2018-09-14T12:00:34.939Z,22.62
2018-09-14T12:01:34.932Z,22.50
2018-09-14T12:02:34.930Z,22.57
2018-09-14T12:03:34.914Z,22.67
2018-09-14T12:04:34.905Z,22.78
2018-09-14T12:05:34.898Z,22.82
2018-09-14T12:06:34.898Z,22.77
2018-09-14T12:07:34.885Z,22.77
2018-09-14T12:08:34.872Z,22.69
2018-09-14T12:09:34.872Z,22.82
2018-09-14T12:10:34.862Z,22.89
2018-09-14T12:11:34.866Z,22.87
2018-09-14T12:12:34.841Z,22.80
2018-09-14T12:13:34.847Z,22.60
2018-09-14T12:14:34.825Z,22.57
2018-09-14T12:15:34.819Z,22.62
2018-09-14T12:16:34.813Z,22.44
2018-09-14T12:17:34.809Z,22.43
2018-09-14T12:18:34.799Z,22.38
2018-09-14T12:19:34.787Z,22.34
2018-09-14T12:20:34.777Z,22.19
2018-09-14T12:21:34.768Z,21.99
2018-09-14T12:22:34.771Z,21.85
2018-09-14T12:23:34.766Z,21.81
2018-09-14T12:24:34.745Z,21.69
2018-09-14T12:25:34.749Z,21.59
2018-09-14T12:26:34.729Z,21.72
2018-09-14T12:27:34.720Z,21.57
2018-09-14T12:28:34.711Z,21.57
2018-09-14T12:29:34.700Z,21.56
2018-09-14T12:30:34.691Z,21.59
2018-09-14T12:31:34.685Z,21.69
2018-09-14T12:32:34.668Z,21.67
2018-09-14T12:33:34.666Z,21.72
2018-09-14T12:34:34.659Z,21.71
2018-09-14T12:35:34.679Z,21.71
2018-09-14T12:36:34.634Z,21.66
2018-09-14T12:37:34.625Z,21.72
2018-09-14T12:38:34.621Z,21.83
2018-09-14T12:39:34.604Z,21.95
2018-09-14T12:40:34.605Z,21.99
2018-09-14T12:41:34.585Z,22.07
2018-09-14T12:42:34.572Z,22.22
2018-09-14T12:43:34.567Z,22.46
2018-09-14T12:44:34.554Z,22.60
2018-09-14T12:45:34.554Z,22.86
2018-09-14T12:46:34.535Z,23.04
2018-09-14T12:47:34.528Z,23.45
2018-09-14T12:48:34.539Z,23.76
2018-09-14T12:49:34.512Z,23.90
2018-09-14T12:50:34.526Z,24.08
2018-09-14T12:51:34.493Z,24.08
2018-09-14T12:52:34.490Z,23.92
2018-09-14T12:53:34.480Z,23.79
2018-09-14T12:54:34.480Z,23.60
2018-09-14T12:55:34.471Z,23.57
2018-09-14T12:56:34.464Z,23.40